Mission Hills, Kansas
Current Conditions -  °F | °C
As of 7:54 AM on Sunday 21 Dec 2014 (Local Time) from KMKC Reporting Station
Overcast Overcast  
Wind Chill: 34°   Ceiling: 1200
Heat Index: 40°   Visibility: 8mi
Dew Point: 36°   Wind: 8mph
Humidity: 86%   Direction: 180°S
Pressure: 30.04"   Gusts: NA
Location:  39.0002°N, 94.6296°W
Report Text: KMKC 211354Z 18007KT 8SM BKN012 OVC020 04/02 A3004 RMK AO2 SLP178 T00440022
Loading
Personal Weather Stations






























Interactive Weather Map New forecast layout! Learn more

10-Day Weather Forecast

Advertisements
Track Severe Weather on mobile